createdAt,value
2022-08-21T00:03:49.019Z,13.75
2022-08-21T00:08:56.735Z,12.30
2022-08-21T00:14:01.863Z,12.30
2022-08-21T00:19:07.363Z,12.90
2022-08-21T00:24:16.643Z,14.52
2022-08-21T00:34:26.714Z,12.10
2022-08-21T00:39:34.849Z,12.20
2022-08-21T00:44:40.030Z,12.52
2022-08-21T00:49:45.152Z,13.20
2022-08-21T00:54:54.439Z,15.07
2022-08-21T01:00:04.434Z,13.85
2022-08-21T01:05:11.629Z,16.65
2022-08-21T01:10:24.100Z,15.07
2022-08-21T01:15:34.102Z,16.42
2022-08-21T01:20:41.012Z,14.57
2022-08-21T01:25:48.726Z,14.45
2022-08-21T01:30:54.963Z,14.90
2022-08-21T01:36:00.084Z,13.75
2022-08-21T01:41:08.139Z,14.93
2022-08-21T01:46:13.922Z,15.98
2022-08-21T01:51:19.309Z,20.10
2022-08-21T01:56:29.003Z,21.52
2022-08-21T02:01:34.106Z,19.92
2022-08-21T02:06:39.211Z,21.42
2022-08-21T02:11:46.984Z,18.08
2022-08-21T02:16:52.092Z,20.48
2022-08-21T02:22:10.831Z,21.98
2022-08-21T02:27:18.482Z,19.63
2022-08-21T02:32:32.286Z,19.10
2022-08-21T02:37:40.285Z,21.95
2022-08-21T02:42:48.004Z,23.58
2022-08-21T02:47:54.009Z,19.80
2022-08-21T02:52:59.481Z,22.33
2022-08-21T02:58:09.219Z,21.08
2022-08-21T03:03:16.442Z,18.90
2022-08-21T03:08:22.460Z,23.15
2022-08-21T03:13:33.185Z,21.30
2022-08-21T03:18:38.376Z,20.05
2022-08-21T03:23:45.850Z,20.52
2022-08-21T03:28:54.400Z,19.75
2022-08-21T03:33:59.436Z,20.60
2022-08-21T03:39:04.675Z,23.25
2022-08-21T03:44:12.973Z,27.25
2022-08-21T03:49:18.052Z,20.42
2022-08-21T03:54:23.571Z,20.30
2022-08-21T03:59:31.275Z,18.33
2022-08-21T04:04:36.740Z,17.02
2022-08-21T04:09:41.859Z,18.08
2022-08-21T04:14:49.534Z,21.63
2022-08-21T04:19:54.588Z,20.65
2022-08-21T04:24:59.668Z,17.73
2022-08-21T04:30:10.406Z,22.55
2022-08-21T04:35:18.337Z,18.35
2022-08-21T04:40:25.280Z,21.73
2022-08-21T04:45:35.998Z,21.30
2022-08-21T04:50:46.315Z,20.42
2022-08-21T04:55:52.433Z,21.35
2022-08-21T05:01:01.533Z,19.08
2022-08-21T05:06:08.501Z,18.17
2022-08-21T05:11:14.158Z,19.95
2022-08-21T05:16:36.862Z,19.38
2022-08-21T05:21:45.702Z,20.25
2022-08-21T05:26:50.812Z,18.50
2022-08-21T05:31:59.264Z,17.65
2022-08-21T05:37:07.796Z,13.73
2022-08-21T05:42:13.012Z,18.08
2022-08-21T05:47:20.841Z,17.13
2022-08-21T05:52:26.630Z,17.42
2022-08-21T05:57:31.683Z,15.82
2022-08-21T06:02:39.394Z,17.17
2022-08-21T06:07:44.416Z,19.00
2022-08-21T06:12:49.554Z,8.00
2022-08-21T06:17:57.483Z,10.60
2022-08-21T06:23:02.915Z,10.57
2022-08-21T06:28:09.917Z,10.95
2022-08-21T06:33:18.238Z,12.23
2022-08-21T06:38:23.341Z,10.50
2022-08-21T06:43:39.572Z,9.05
2022-08-21T06:48:47.979Z,10.85
2022-08-21T06:53:53.219Z,7.75
2022-08-21T06:58:59.199Z,8.82
2022-08-21T07:04:07.780Z,7.78
2022-08-21T07:09:13.037Z,9.03
2022-08-21T07:14:20.464Z,8.85
2022-08-21T07:19:29.163Z,11.95
2022-08-21T07:24:34.315Z,16.27
2022-08-21T07:29:39.371Z,16.58
2022-08-21T07:34:47.399Z,9.90
2022-08-21T07:45:39.586Z,10.82
2022-08-21T07:50:47.540Z,12.57
2022-08-21T07:55:52.597Z,13.80
2022-08-21T08:00:57.697Z,13.98
2022-08-21T08:06:05.905Z,14.55
2022-08-21T08:11:12.096Z,14.35
2022-08-21T08:16:17.424Z,14.65
2022-08-21T08:21:25.155Z,16.02
2022-08-21T08:26:31.072Z,17.00
2022-08-21T08:31:37.272Z,14.13
2022-08-21T08:36:45.001Z,12.45
2022-08-21T08:41:55.363Z,10.23
2022-08-21T08:47:04.136Z,13.27
2022-08-21T08:52:18.676Z,12.52
2022-08-21T08:57:25.101Z,12.90
2022-08-21T09:02:31.259Z,16.48
2022-08-21T09:07:51.093Z,15.25
2022-08-21T09:13:04.102Z,13.23
2022-08-21T09:18:21.836Z,11.07
2022-08-21T09:23:35.948Z,14.95
2022-08-21T09:28:42.255Z,15.18
2022-08-21T09:33:47.296Z,16.30
2022-08-21T09:38:57.817Z,15.85
2022-08-21T09:44:02.987Z,17.52
2022-08-21T09:49:13.459Z,12.52
2022-08-21T09:54:25.375Z,11.52
2022-08-21T09:59:36.901Z,9.57
2022-08-21T10:04:47.031Z,10.77
2022-08-21T10:10:02.727Z,10.02
2022-08-21T10:15:17.949Z,8.88
2022-08-21T10:20:26.841Z,9.27
2022-08-21T10:25:37.387Z,9.98
2022-08-21T10:30:54.994Z,9.07
2022-08-21T10:36:05.933Z,10.07
2022-08-21T10:41:21.115Z,9.10
2022-08-21T10:46:35.477Z,9.85
2022-08-21T10:51:45.160Z,5.65
2022-08-21T10:56:54.812Z,7.68
2022-08-21T11:02:03.925Z,7.50
2022-08-21T11:12:29.960Z,7.70
2022-08-21T11:17:38.838Z,10.85
2022-08-21T11:22:52.590Z,12.90
2022-08-21T11:28:04.960Z,13.73
2022-08-21T11:33:20.438Z,12.30
2022-08-21T11:38:34.365Z,14.25
2022-08-21T11:43:44.287Z,14.95
2022-08-21T11:48:56.155Z,13.43
2022-08-21T11:54:07.346Z,11.82
2022-08-21T11:59:18.586Z,12.95
2022-08-21T12:04:33.819Z,11.25
2022-08-21T12:09:40.595Z,11.45
2022-08-21T12:14:50.658Z,12.80
2022-08-21T12:20:02.291Z,9.70
2022-08-21T12:25:10.331Z,11.23
2022-08-21T12:30:37.437Z,11.63
2022-08-21T12:35:44.939Z,10.98
2022-08-21T12:40:55.271Z,10.80
2022-08-21T12:46:05.692Z,12.57
2022-08-21T12:51:14.396Z,14.20
2022-08-21T12:56:25.157Z,14.02
2022-08-21T13:01:40.806Z,11.13
2022-08-21T13:06:49.513Z,14.00
2022-08-21T13:11:54.836Z,15.25
2022-08-21T13:17:03.303Z,13.90
2022-08-21T13:22:33.389Z,19.53
2022-08-21T13:27:35.667Z,5.40
2022-08-21T13:32:46.471Z,13.13
2022-08-21T13:37:53.247Z,19.30
2022-08-21T13:42:58.823Z,19.70
2022-08-21T13:48:07.788Z,17.23
2022-08-21T13:53:28.053Z,14.80
2022-08-21T13:58:36.266Z,15.43
2022-08-21T14:03:47.389Z,17.10
2022-08-21T14:08:54.756Z,14.57
2022-08-21T14:14:04.076Z,13.77
2022-08-21T14:24:31.927Z,14.68
2022-08-21T14:29:46.621Z,10.30
2022-08-21T14:34:54.872Z,7.35
2022-08-21T14:40:00.369Z,8.03
2022-08-21T14:45:09.367Z,8.55
2022-08-21T14:50:17.559Z,11.98
2022-08-21T14:55:23.160Z,6.72
2022-08-21T15:00:35.974Z,9.32
2022-08-21T15:05:44.063Z,9.70
2022-08-21T15:11:10.694Z,8.80
2022-08-21T15:16:15.824Z,7.63
2022-08-21T15:21:23.479Z,8.30
2022-08-21T15:26:29.549Z,8.27
2022-08-21T15:31:34.674Z,12.00
2022-08-21T15:36:42.304Z,13.60
2022-08-21T15:41:47.330Z,12.65
2022-08-21T15:46:52.343Z,14.55
2022-08-21T15:51:59.963Z,11.27
2022-08-21T15:57:05.000Z,14.93
2022-08-21T16:02:11.041Z,31.42
2022-08-21T16:07:18.859Z,18.23
2022-08-21T16:12:25.948Z,12.60
2022-08-21T16:17:33.711Z,16.63
2022-08-21T16:22:44.490Z,14.30
2022-08-21T16:27:57.305Z,13.10
2022-08-21T16:33:05.644Z,11.23
2022-08-21T16:38:14.457Z,11.90
2022-08-21T16:43:19.731Z,7.78
2022-08-21T16:48:25.307Z,6.63
2022-08-21T16:53:32.940Z,7.97
2022-08-21T16:58:42.286Z,7.03
2022-08-21T17:08:56.131Z,14.63
2022-08-21T17:14:01.848Z,26.38
2022-08-21T17:19:10.398Z,8.88
2022-08-21T17:24:19.522Z,6.10
2022-08-21T17:29:28.974Z,6.93
2022-08-21T17:34:34.357Z,9.38
2022-08-21T17:39:43.732Z,7.03
2022-08-21T17:44:49.103Z,7.43
2022-08-21T17:49:54.163Z,6.95
2022-08-21T17:55:01.795Z,6.35
2022-08-21T18:00:09.288Z,6.03
2022-08-21T18:05:16.359Z,5.93
2022-08-21T18:10:24.061Z,7.22
2022-08-21T18:15:29.187Z,8.00
2022-08-21T18:20:34.339Z,13.57
2022-08-21T18:25:42.544Z,7.95
2022-08-21T18:30:47.639Z,6.65
2022-08-21T18:35:53.140Z,8.35
2022-08-21T18:41:02.759Z,10.52
2022-08-21T18:46:15.175Z,8.02
2022-08-21T18:51:20.551Z,12.38
2022-08-21T18:56:29.048Z,8.70
2022-08-21T19:01:34.090Z,9.43
2022-08-21T19:06:41.046Z,10.07
2022-08-21T19:11:55.427Z,11.40
2022-08-21T19:17:00.883Z,8.43
2022-08-21T19:22:06.114Z,7.78
2022-08-21T19:27:19.099Z,7.75
2022-08-21T19:32:24.228Z,9.20
2022-08-21T19:37:31.957Z,7.60
2022-08-21T19:42:45.844Z,6.18
2022-08-21T19:47:51.979Z,7.00
2022-08-21T19:52:57.209Z,10.40
2022-08-21T19:58:06.050Z,9.10
2022-08-21T20:03:11.513Z,8.43
2022-08-21T20:08:20.449Z,10.05
2022-08-21T20:13:32.618Z,7.78
2022-08-21T20:18:41.424Z,8.82
2022-08-21T20:23:49.073Z,8.98
2022-08-21T20:28:57.442Z,8.55
2022-08-21T20:34:02.832Z,9.95
2022-08-21T20:39:09.484Z,11.25
2022-08-21T20:44:19.835Z,9.57
2022-08-21T20:49:28.670Z,9.15
2022-08-21T20:54:37.366Z,10.27
2022-08-21T20:59:50.226Z,10.30
2022-08-21T21:04:58.585Z,10.73
2022-08-21T21:10:05.448Z,10.20
2022-08-21T21:20:47.558Z,10.15
2022-08-21T21:26:01.161Z,11.23
2022-08-21T21:31:08.960Z,12.95
2022-08-21T21:36:25.932Z,10.15
2022-08-21T21:47:12.032Z,11.93
2022-08-21T21:52:27.322Z,10.93
2022-08-21T21:57:50.054Z,15.27
2022-08-21T22:08:41.024Z,8.10
2022-08-21T22:13:59.056Z,6.93
2022-08-21T22:19:14.041Z,6.93
2022-08-21T22:24:23.812Z,8.48
2022-08-21T22:29:29.088Z,15.60
2022-08-21T22:34:36.872Z,14.00
2022-08-21T22:39:46.418Z,29.08
2022-08-21T22:44:53.661Z,16.50
2022-08-21T22:50:04.751Z,23.30
2022-08-21T22:55:24.764Z,12.52
2022-08-21T23:00:42.488Z,11.52
2022-08-21T23:05:50.204Z,12.55
2022-08-21T23:11:01.451Z,12.45
2022-08-21T23:21:45.936Z,11.05
2022-08-21T23:27:01.047Z,13.57
2022-08-21T23:32:14.894Z,12.88
2022-08-21T23:37:49.303Z,13.27
2022-08-21T23:43:06.948Z,13.02
2022-08-21T23:48:29.472Z,14.35
2022-08-21T23:53:50.504Z,14.25
2022-08-21T23:59:21.874Z,12.77
